sensor_id;sensor_type;location;lat;lon;timestamp;P1;durP1;ratioP1;P2;durP2;ratioP2
10244;SDS011;5167;52.164;10.530;2023-06-22T00:01:15;7.00;;;6.30;;
10244;SDS011;5167;52.164;10.530;2023-06-22T00:03:41;9.55;;;7.00;;
10244;SDS011;5167;52.164;10.530;2023-06-22T00:06:06;8.18;;;6.10;;
10244;SDS011;5167;52.164;10.530;2023-06-22T00:08:32;10.88;;;6.90;;
10244;SDS011;5167;52.164;10.530;2023-06-22T00:10:57;8.75;;;6.65;;
10244;SDS011;5167;52.164;10.530;2023-06-22T00:13:23;8.20;;;6.78;;
10244;SDS011;5167;52.164;10.530;2023-06-22T00:15:48;8.48;;;6.93;;
10244;SDS011;5167;52.164;10.530;2023-06-22T00:18:14;9.85;;;6.97;;
10244;SDS011;5167;52.164;10.530;2023-06-22T00:20:41;11.48;;;7.75;;
10244;SDS011;5167;52.164;10.530;2023-06-22T00:23:06;8.73;;;6.85;;
10244;SDS011;5167;52.164;10.530;2023-06-22T00:25:39;11.18;;;7.10;;
10244;SDS011;5167;52.164;10.530;2023-06-22T00:28:05;8.13;;;6.43;;
10244;SDS011;5167;52.164;10.530;2023-06-22T00:30:32;8.65;;;6.70;;
10244;SDS011;5167;52.164;10.530;2023-06-22T00:32:58;9.50;;;6.82;;
10244;SDS011;5167;52.164;10.530;2023-06-22T00:35:24;9.05;;;7.13;;
10244;SDS011;5167;52.164;10.530;2023-06-22T00:37:56;7.28;;;6.13;;
10244;SDS011;5167;52.164;10.530;2023-06-22T00:40:26;8.90;;;6.97;;
10244;SDS011;5167;52.164;10.530;2023-06-22T00:42:52;9.30;;;6.57;;
10244;SDS011;5167;52.164;10.530;2023-06-22T00:45:18;9.52;;;7.35;;
10244;SDS011;5167;52.164;10.530;2023-06-22T00:47:44;11.35;;;7.28;;
10244;SDS011;5167;52.164;10.530;2023-06-22T00:50:09;9.02;;;6.32;;
10244;SDS011;5167;52.164;10.530;2023-06-22T00:52:43;7.93;;;6.80;;
10244;SDS011;5167;52.164;10.530;2023-06-22T00:55:09;8.30;;;7.10;;
10244;SDS011;5167;52.164;10.530;2023-06-22T00:57:34;9.38;;;7.22;;
10244;SDS011;5167;52.164;10.530;2023-06-22T01:00:02;11.95;;;7.82;;
10244;SDS011;5167;52.164;10.530;2023-06-22T01:02:32;9.45;;;7.53;;
10244;SDS011;5167;52.164;10.530;2023-06-22T01:04:58;9.55;;;7.28;;
10244;SDS011;5167;52.164;10.530;2023-06-22T01:07:31;8.00;;;6.70;;
10244;SDS011;5167;52.164;10.530;2023-06-22T01:10:07;10.65;;;7.47;;
10244;SDS011;5167;52.164;10.530;2023-06-22T01:12:42;10.98;;;7.20;;
10244;SDS011;5167;52.164;10.530;2023-06-22T01:15:14;8.48;;;7.05;;
10244;SDS011;5167;52.164;10.530;2023-06-22T01:17:45;10.20;;;7.40;;
10244;SDS011;5167;52.164;10.530;2023-06-22T01:20:14;9.15;;;7.25;;
10244;SDS011;5167;52.164;10.530;2023-06-22T01:23:02;11.55;;;7.50;;
10244;SDS011;5167;52.164;10.530;2023-06-22T01:25:46;10.63;;;7.10;;
10244;SDS011;5167;52.164;10.530;2023-06-22T01:31:23;11.70;;;7.53;;
10244;SDS011;5167;52.164;10.530;2023-06-22T01:33:50;8.65;;;7.72;;
10244;SDS011;5167;52.164;10.530;2023-06-22T01:36:18;9.60;;;7.22;;
10244;SDS011;5167;52.164;10.530;2023-06-22T01:38:46;10.13;;;7.25;;
10244;SDS011;5167;52.164;10.530;2023-06-22T01:41:12;11.80;;;7.60;;
10244;SDS011;5167;52.164;10.530;2023-06-22T01:43:38;9.90;;;7.35;;
10244;SDS011;5167;52.164;10.530;2023-06-22T01:46:04;9.73;;;7.85;;
10244;SDS011;5167;52.164;10.530;2023-06-22T01:48:30;13.32;;;9.02;;
10244;SDS011;5167;52.164;10.530;2023-06-22T01:50:56;12.05;;;8.98;;
10244;SDS011;5167;52.164;10.530;2023-06-22T01:53:22;10.52;;;8.18;;
10244;SDS011;5167;52.164;10.530;2023-06-22T01:55:48;13.25;;;9.00;;
10244;SDS011;5167;52.164;10.530;2023-06-22T01:58:14;12.00;;;8.05;;
10244;SDS011;5167;52.164;10.530;2023-06-22T02:00:40;11.75;;;7.68;;
10244;SDS011;5167;52.164;10.530;2023-06-22T02:03:13;11.98;;;8.10;;
10244;SDS011;5167;52.164;10.530;2023-06-22T02:05:43;14.02;;;8.57;;
10244;SDS011;5167;52.164;10.530;2023-06-22T02:08:24;11.45;;;8.45;;
10244;SDS011;5167;52.164;10.530;2023-06-22T02:10:53;10.88;;;8.15;;
10244;SDS011;5167;52.164;10.530;2023-06-22T02:13:20;10.98;;;8.80;;
10244;SDS011;5167;52.164;10.530;2023-06-22T02:15:46;12.73;;;8.15;;
10244;SDS011;5167;52.164;10.530;2023-06-22T02:18:12;13.85;;;8.60;;
10244;SDS011;5167;52.164;10.530;2023-06-22T02:20:39;11.52;;;8.73;;
10244;SDS011;5167;52.164;10.530;2023-06-22T02:23:05;13.82;;;9.13;;
10244;SDS011;5167;52.164;10.530;2023-06-22T02:25:32;15.50;;;8.50;;
10244;SDS011;5167;52.164;10.530;2023-06-22T02:27:58;13.77;;;8.90;;
10244;SDS011;5167;52.164;10.530;2023-06-22T02:30:23;11.60;;;8.60;;
10244;SDS011;5167;52.164;10.530;2023-06-22T02:32:49;12.60;;;8.13;;
10244;SDS011;5167;52.164;10.530;2023-06-22T02:35:26;10.65;;;8.25;;
10244;SDS011;5167;52.164;10.530;2023-06-22T02:37:56;12.27;;;8.38;;
10244;SDS011;5167;52.164;10.530;2023-06-22T02:40:25;11.57;;;8.77;;
10244;SDS011;5167;52.164;10.530;2023-06-22T02:42:51;13.95;;;8.55;;
10244;SDS011;5167;52.164;10.530;2023-06-22T02:45:17;13.90;;;9.02;;
10244;SDS011;5167;52.164;10.530;2023-06-22T02:47:42;12.80;;;9.30;;
10244;SDS011;5167;52.164;10.530;2023-06-22T02:50:09;14.52;;;9.07;;
10244;SDS011;5167;52.164;10.530;2023-06-22T02:52:34;13.48;;;8.55;;
10244;SDS011;5167;52.164;10.530;2023-06-22T02:55:00;12.82;;;8.93;;
10244;SDS011;5167;52.164;10.530;2023-06-22T02:57:26;12.80;;;8.82;;
10244;SDS011;5167;52.164;10.530;2023-06-22T02:59:51;15.00;;;9.43;;
10244;SDS011;5167;52.164;10.530;2023-06-22T03:02:17;14.82;;;9.05;;
10244;SDS011;5167;52.164;10.530;2023-06-22T03:04:44;12.98;;;9.35;;
10244;SDS011;5167;52.164;10.530;2023-06-22T03:07:09;12.45;;;9.15;;
10244;SDS011;5167;52.164;10.530;2023-06-22T03:09:35;13.43;;;9.50;;
10244;SDS011;5167;52.164;10.530;2023-06-22T03:12:00;14.48;;;8.35;;
10244;SDS011;5167;52.164;10.530;2023-06-22T03:14:27;17.13;;;9.32;;
10244;SDS011;5167;52.164;10.530;2023-06-22T03:16:52;15.15;;;8.98;;
10244;SDS011;5167;52.164;10.530;2023-06-22T03:19:18;12.60;;;9.60;;
10244;SDS011;5167;52.164;10.530;2023-06-22T03:21:44;14.23;;;9.00;;
10244;SDS011;5167;52.164;10.530;2023-06-22T03:24:10;14.18;;;9.63;;
10244;SDS011;5167;52.164;10.530;2023-06-22T03:26:35;16.08;;;9.65;;
10244;SDS011;5167;52.164;10.530;2023-06-22T03:29:01;16.20;;;8.85;;
10244;SDS011;5167;52.164;10.530;2023-06-22T03:31:26;15.57;;;9.93;;
10244;SDS011;5167;52.164;10.530;2023-06-22T03:33:52;12.82;;;9.00;;
10244;SDS011;5167;52.164;10.530;2023-06-22T03:36:17;11.68;;;8.02;;
10244;SDS011;5167;52.164;10.530;2023-06-22T03:38:47;12.25;;;7.82;;
10244;SDS011;5167;52.164;10.530;2023-06-22T03:41:13;14.80;;;8.88;;
10244;SDS011;5167;52.164;10.530;2023-06-22T03:43:39;16.55;;;8.65;;
10244;SDS011;5167;52.164;10.530;2023-06-22T03:46:04;12.05;;;8.00;;
10244;SDS011;5167;52.164;10.530;2023-06-22T03:48:30;17.80;;;8.35;;
10244;SDS011;5167;52.164;10.530;2023-06-22T03:50:56;21.40;;;8.98;;
10244;SDS011;5167;52.164;10.530;2023-06-22T03:53:23;12.50;;;8.30;;
10244;SDS011;5167;52.164;10.530;2023-06-22T03:55:49;16.65;;;8.68;;
10244;SDS011;5167;52.164;10.530;2023-06-22T03:58:16;11.68;;;7.95;;
10244;SDS011;5167;52.164;10.530;2023-06-22T04:00:44;12.98;;;8.82;;
10244;SDS011;5167;52.164;10.530;2023-06-22T04:03:13;13.73;;;9.02;;
10244;SDS011;5167;52.164;10.530;2023-06-22T04:05:39;11.52;;;8.32;;
10244;SDS011;5167;52.164;10.530;2023-06-22T04:08:05;10.73;;;8.50;;
10244;SDS011;5167;52.164;10.530;2023-06-22T04:10:30;12.80;;;8.35;;
10244;SDS011;5167;52.164;10.530;2023-06-22T04:12:56;13.50;;;8.60;;
10244;SDS011;5167;52.164;10.530;2023-06-22T04:15:22;15.63;;;8.55;;
10244;SDS011;5167;52.164;10.530;2023-06-22T04:17:47;13.50;;;8.60;;
10244;SDS011;5167;52.164;10.530;2023-06-22T04:20:13;12.43;;;8.57;;
10244;SDS011;5167;52.164;10.530;2023-06-22T04:22:38;12.82;;;8.23;;
10244;SDS011;5167;52.164;10.530;2023-06-22T04:25:05;13.75;;;9.00;;
10244;SDS011;5167;52.164;10.530;2023-06-22T04:27:32;13.00;;;8.35;;
10244;SDS011;5167;52.164;10.530;2023-06-22T04:30:02;10.75;;;8.43;;
10244;SDS011;5167;52.164;10.530;2023-06-22T04:32:32;16.38;;;10.90;;
10244;SDS011;5167;52.164;10.530;2023-06-22T04:34:58;17.20;;;10.43;;
10244;SDS011;5167;52.164;10.530;2023-06-22T04:37:25;14.63;;;10.88;;
10244;SDS011;5167;52.164;10.530;2023-06-22T04:39:51;12.98;;;10.05;;
10244;SDS011;5167;52.164;10.530;2023-06-22T04:42:17;17.88;;;10.27;;
10244;SDS011;5167;52.164;10.530;2023-06-22T04:44:42;15.93;;;10.60;;
10244;SDS011;5167;52.164;10.530;2023-06-22T04:47:08;17.63;;;11.05;;
10244;SDS011;5167;52.164;10.530;2023-06-22T04:49:34;17.90;;;11.18;;
10244;SDS011;5167;52.164;10.530;2023-06-22T04:52:02;19.80;;;10.98;;
10244;SDS011;5167;52.164;10.530;2023-06-22T04:54:29;13.80;;;10.07;;
10244;SDS011;5167;52.164;10.530;2023-06-22T04:56:57;13.35;;;10.27;;
10244;SDS011;5167;52.164;10.530;2023-06-22T04:59:27;16.08;;;10.98;;
10244;SDS011;5167;52.164;10.530;2023-06-22T05:01:58;16.05;;;10.90;;
10244;SDS011;5167;52.164;10.530;2023-06-22T05:04:27;20.88;;;10.52;;
10244;SDS011;5167;52.164;10.530;2023-06-22T05:06:56;13.40;;;9.50;;
10244;SDS011;5167;52.164;10.530;2023-06-22T05:09:22;17.65;;;9.65;;
10244;SDS011;5167;52.164;10.530;2023-06-22T05:11:48;17.02;;;10.57;;
10244;SDS011;5167;52.164;10.530;2023-06-22T05:14:14;19.13;;;9.93;;
10244;SDS011;5167;52.164;10.530;2023-06-22T05:16:40;14.80;;;9.63;;
10244;SDS011;5167;52.164;10.530;2023-06-22T05:19:06;19.23;;;9.63;;
10244;SDS011;5167;52.164;10.530;2023-06-22T05:21:32;16.85;;;9.85;;
10244;SDS011;5167;52.164;10.530;2023-06-22T05:23:58;18.38;;;10.60;;
10244;SDS011;5167;52.164;10.530;2023-06-22T05:26:26;14.80;;;9.88;;
10244;SDS011;5167;52.164;10.530;2023-06-22T05:28:52;17.30;;;9.23;;
10244;SDS011;5167;52.164;10.530;2023-06-22T05:31:18;21.35;;;9.57;;
10244;SDS011;5167;52.164;10.530;2023-06-22T05:33:46;16.65;;;9.75;;
10244;SDS011;5167;52.164;10.530;2023-06-22T05:36:13;20.33;;;8.85;;
10244;SDS011;5167;52.164;10.530;2023-06-22T05:38:39;10.90;;;8.23;;
10244;SDS011;5167;52.164;10.530;2023-06-22T05:41:05;15.95;;;8.98;;
10244;SDS011;5167;52.164;10.530;2023-06-22T05:43:30;13.43;;;8.48;;
10244;SDS011;5167;52.164;10.530;2023-06-22T05:45:56;15.50;;;8.32;;
10244;SDS011;5167;52.164;10.530;2023-06-22T05:48:22;15.65;;;9.52;;
10244;SDS011;5167;52.164;10.530;2023-06-22T05:50:48;10.30;;;7.70;;
10244;SDS011;5167;52.164;10.530;2023-06-22T05:53:13;16.52;;;9.77;;
10244;SDS011;5167;52.164;10.530;2023-06-22T05:55:39;15.70;;;8.80;;
10244;SDS011;5167;52.164;10.530;2023-06-22T05:58:05;12.20;;;8.93;;
10244;SDS011;5167;52.164;10.530;2023-06-22T06:00:30;12.30;;;8.65;;
10244;SDS011;5167;52.164;10.530;2023-06-22T06:02:56;13.10;;;8.23;;
10244;SDS011;5167;52.164;10.530;2023-06-22T06:05:22;15.85;;;8.20;;
10244;SDS011;5167;52.164;10.530;2023-06-22T06:07:48;12.60;;;8.02;;
10244;SDS011;5167;52.164;10.530;2023-06-22T06:10:14;12.13;;;8.05;;
10244;SDS011;5167;52.164;10.530;2023-06-22T06:12:39;16.33;;;7.65;;
10244;SDS011;5167;52.164;10.530;2023-06-22T06:15:05;13.18;;;8.52;;
10244;SDS011;5167;52.164;10.530;2023-06-22T06:17:31;11.10;;;8.25;;
10244;SDS011;5167;52.164;10.530;2023-06-22T06:19:56;12.35;;;8.07;;
10244;SDS011;5167;52.164;10.530;2023-06-22T06:22:23;10.77;;;8.30;;
10244;SDS011;5167;52.164;10.530;2023-06-22T06:24:49;10.93;;;7.45;;
10244;SDS011;5167;52.164;10.530;2023-06-22T06:27:15;13.40;;;8.32;;
10244;SDS011;5167;52.164;10.530;2023-06-22T06:29:43;15.35;;;8.57;;
10244;SDS011;5167;52.164;10.530;2023-06-22T06:32:10;12.68;;;7.82;;
10244;SDS011;5167;52.164;10.530;2023-06-22T06:34:36;23.85;;;7.53;;
10244;SDS011;5167;52.164;10.530;2023-06-22T06:37:01;10.00;;;7.07;;
10244;SDS011;5167;52.164;10.530;2023-06-22T06:39:27;11.57;;;7.03;;
10244;SDS011;5167;52.164;10.530;2023-06-22T06:41:52;11.05;;;7.55;;
10244;SDS011;5167;52.164;10.530;2023-06-22T06:44:18;11.57;;;6.88;;
10244;SDS011;5167;52.164;10.530;2023-06-22T06:46:43;12.40;;;7.70;;
10244;SDS011;5167;52.164;10.530;2023-06-22T06:49:09;10.55;;;7.55;;
10244;SDS011;5167;52.164;10.530;2023-06-22T06:51:34;12.45;;;7.45;;
10244;SDS011;5167;52.164;10.530;2023-06-22T06:54:01;10.20;;;7.10;;
10244;SDS011;5167;52.164;10.530;2023-06-22T06:56:28;11.73;;;7.20;;
10244;SDS011;5167;52.164;10.530;2023-06-22T06:58:55;9.48;;;7.50;;
10244;SDS011;5167;52.164;10.530;2023-06-22T07:01:20;12.95;;;7.85;;
10244;SDS011;5167;52.164;10.530;2023-06-22T07:03:46;11.60;;;7.63;;
10244;SDS011;5167;52.164;10.530;2023-06-22T07:06:11;11.32;;;7.70;;
10244;SDS011;5167;52.164;10.530;2023-06-22T07:08:38;15.80;;;7.68;;
10244;SDS011;5167;52.164;10.530;2023-06-22T07:11:04;11.70;;;7.35;;
10244;SDS011;5167;52.164;10.530;2023-06-22T07:13:30;11.88;;;8.00;;
10244;SDS011;5167;52.164;10.530;2023-06-22T07:15:55;14.25;;;8.23;;
10244;SDS011;5167;52.164;10.530;2023-06-22T07:18:21;13.38;;;7.85;;
10244;SDS011;5167;52.164;10.530;2023-06-22T07:20:46;14.27;;;8.73;;
10244;SDS011;5167;52.164;10.530;2023-06-22T07:23:12;11.77;;;7.63;;
10244;SDS011;5167;52.164;10.530;2023-06-22T07:25:38;13.70;;;8.38;;
10244;SDS011;5167;52.164;10.530;2023-06-22T07:28:04;10.60;;;7.75;;
10244;SDS011;5167;52.164;10.530;2023-06-22T07:30:32;12.65;;;9.38;;
10244;SDS011;5167;52.164;10.530;2023-06-22T07:32:58;14.95;;;9.27;;
10244;SDS011;5167;52.164;10.530;2023-06-22T07:35:31;14.45;;;8.57;;
10244;SDS011;5167;52.164;10.530;2023-06-22T07:37:57;13.30;;;8.35;;
10244;SDS011;5167;52.164;10.530;2023-06-22T07:40:23;11.43;;;7.75;;
10244;SDS011;5167;52.164;10.530;2023-06-22T07:42:49;12.43;;;8.90;;
10244;SDS011;5167;52.164;10.530;2023-06-22T07:45:16;12.90;;;8.52;;
10244;SDS011;5167;52.164;10.530;2023-06-22T07:47:42;14.40;;;9.15;;
10244;SDS011;5167;52.164;10.530;2023-06-22T07:50:07;12.65;;;8.52;;
10244;SDS011;5167;52.164;10.530;2023-06-22T07:52:33;14.05;;;8.93;;
10244;SDS011;5167;52.164;10.530;2023-06-22T07:54:59;13.48;;;9.60;;
10244;SDS011;5167;52.164;10.530;2023-06-22T07:57:24;13.60;;;8.35;;
10244;SDS011;5167;52.164;10.530;2023-06-22T07:59:57;9.75;;;7.40;;
10244;SDS011;5167;52.164;10.530;2023-06-22T08:02:23;14.90;;;9.68;;
10244;SDS011;5167;52.164;10.530;2023-06-22T08:04:49;16.30;;;9.45;;
10244;SDS011;5167;52.164;10.530;2023-06-22T08:07:14;16.75;;;9.40;;
10244;SDS011;5167;52.164;10.530;2023-06-22T08:09:42;18.38;;;10.95;;
10244;SDS011;5167;52.164;10.530;2023-06-22T08:12:12;15.10;;;9.13;;
10244;SDS011;5167;52.164;10.530;2023-06-22T08:14:38;15.20;;;9.65;;
10244;SDS011;5167;52.164;10.530;2023-06-22T08:17:03;15.35;;;10.90;;
10244;SDS011;5167;52.164;10.530;2023-06-22T08:19:29;18.77;;;11.13;;
10244;SDS011;5167;52.164;10.530;2023-06-22T08:21:55;15.52;;;11.18;;
10244;SDS011;5167;52.164;10.530;2023-06-22T08:24:20;14.07;;;9.68;;
10244;SDS011;5167;52.164;10.530;2023-06-22T08:26:45;13.63;;;10.52;;
10244;SDS011;5167;52.164;10.530;2023-06-22T08:29:11;15.52;;;10.57;;
10244;SDS011;5167;52.164;10.530;2023-06-22T08:31:36;30.23;;;11.65;;
10244;SDS011;5167;52.164;10.530;2023-06-22T08:34:02;15.35;;;10.48;;
10244;SDS011;5167;52.164;10.530;2023-06-22T08:36:27;15.02;;;10.50;;
10244;SDS011;5167;52.164;10.530;2023-06-22T08:38:55;19.67;;;11.23;;
10244;SDS011;5167;52.164;10.530;2023-06-22T08:41:22;14.40;;;10.57;;
10244;SDS011;5167;52.164;10.530;2023-06-22T08:43:48;13.82;;;10.75;;
10244;SDS011;5167;52.164;10.530;2023-06-22T08:46:13;17.40;;;12.43;;
10244;SDS011;5167;52.164;10.530;2023-06-22T08:48:39;13.23;;;10.18;;
10244;SDS011;5167;52.164;10.530;2023-06-22T08:51:04;17.45;;;11.65;;
10244;SDS011;5167;52.164;10.530;2023-06-22T08:53:30;19.25;;;11.73;;
10244;SDS011;5167;52.164;10.530;2023-06-22T08:55:55;16.48;;;11.40;;
10244;SDS011;5167;52.164;10.530;2023-06-22T08:58:21;20.58;;;12.63;;
10244;SDS011;5167;52.164;10.530;2023-06-22T09:00:47;16.90;;;12.68;;
10244;SDS011;5167;52.164;10.530;2023-06-22T09:03:13;21.67;;;12.63;;
10244;SDS011;5167;52.164;10.530;2023-06-22T09:05:39;16.23;;;11.40;;
10244;SDS011;5167;52.164;10.530;2023-06-22T09:08:04;16.40;;;12.52;;
10244;SDS011;5167;52.164;10.530;2023-06-22T09:10:30;14.63;;;11.35;;
10244;SDS011;5167;52.164;10.530;2023-06-22T09:12:56;15.55;;;10.90;;
10244;SDS011;5167;52.164;10.530;2023-06-22T09:15:22;17.02;;;11.23;;
10244;SDS011;5167;52.164;10.530;2023-06-22T09:17:47;15.57;;;11.50;;
10244;SDS011;5167;52.164;10.530;2023-06-22T09:20:13;17.52;;;12.75;;
10244;SDS011;5167;52.164;10.530;2023-06-22T09:22:39;15.80;;;11.27;;
10244;SDS011;5167;52.164;10.530;2023-06-22T09:25:05;14.95;;;11.50;;
10244;SDS011;5167;52.164;10.530;2023-06-22T09:27:31;16.35;;;12.30;;
10244;SDS011;5167;52.164;10.530;2023-06-22T09:29:56;15.68;;;11.32;;
10244;SDS011;5167;52.164;10.530;2023-06-22T09:32:23;15.73;;;12.23;;
10244;SDS011;5167;52.164;10.530;2023-06-22T09:34:50;15.05;;;11.25;;
10244;SDS011;5167;52.164;10.530;2023-06-22T09:37:15;14.35;;;11.15;;
10244;SDS011;5167;52.164;10.530;2023-06-22T09:39:41;17.23;;;11.90;;
10244;SDS011;5167;52.164;10.530;2023-06-22T09:42:07;18.38;;;11.32;;
10244;SDS011;5167;52.164;10.530;2023-06-22T09:44:32;15.13;;;10.18;;
10244;SDS011;5167;52.164;10.530;2023-06-22T09:46:58;17.98;;;11.32;;
10244;SDS011;5167;52.164;10.530;2023-06-22T09:49:24;13.93;;;11.10;;
10244;SDS011;5167;52.164;10.530;2023-06-22T09:51:51;16.23;;;10.50;;
10244;SDS011;5167;52.164;10.530;2023-06-22T09:54:17;17.55;;;10.68;;
10244;SDS011;5167;52.164;10.530;2023-06-22T09:56:43;14.70;;;11.13;;
10244;SDS011;5167;52.164;10.530;2023-06-22T09:59:08;14.43;;;11.00;;
10244;SDS011;5167;52.164;10.530;2023-06-22T10:01:34;19.30;;;11.18;;
10244;SDS011;5167;52.164;10.530;2023-06-22T10:03:59;15.13;;;11.02;;
10244;SDS011;5167;52.164;10.530;2023-06-22T10:06:25;15.18;;;10.77;;
10244;SDS011;5167;52.164;10.530;2023-06-22T10:08:51;17.73;;;11.13;;
10244;SDS011;5167;52.164;10.530;2023-06-22T10:11:16;21.50;;;11.52;;
10244;SDS011;5167;52.164;10.530;2023-06-22T10:13:42;18.58;;;11.88;;
10244;SDS011;5167;52.164;10.530;2023-06-22T10:16:08;16.58;;;11.77;;
10244;SDS011;5167;52.164;10.530;2023-06-22T10:18:33;21.10;;;12.63;;
10244;SDS011;5167;52.164;10.530;2023-06-22T10:20:59;16.00;;;11.63;;
10244;SDS011;5167;52.164;10.530;2023-06-22T10:23:25;15.75;;;11.82;;
10244;SDS011;5167;52.164;10.530;2023-06-22T10:25:50;14.07;;;11.48;;
10244;SDS011;5167;52.164;10.530;2023-06-22T10:28:16;14.48;;;11.13;;
10244;SDS011;5167;52.164;10.530;2023-06-22T10:30:41;14.13;;;11.40;;
10244;SDS011;5167;52.164;10.530;2023-06-22T10:33:08;17.27;;;12.23;;
10244;SDS011;5167;52.164;10.530;2023-06-22T10:35:34;19.23;;;11.18;;
10244;SDS011;5167;52.164;10.530;2023-06-22T10:38:00;14.80;;;11.32;;
10244;SDS011;5167;52.164;10.530;2023-06-22T10:40:25;14.60;;;11.32;;
10244;SDS011;5167;52.164;10.530;2023-06-22T10:42:51;12.82;;;10.10;;
10244;SDS011;5167;52.164;10.530;2023-06-22T10:45:16;11.80;;;9.55;;
10244;SDS011;5167;52.164;10.530;2023-06-22T10:47:42;12.57;;;10.48;;
10244;SDS011;5167;52.164;10.530;2023-06-22T10:50:08;13.02;;;9.43;;
10244;SDS011;5167;52.164;10.530;2023-06-22T10:52:33;12.10;;;9.63;;
10244;SDS011;5167;52.164;10.530;2023-06-22T10:54:59;13.18;;;9.38;;
10244;SDS011;5167;52.164;10.530;2023-06-22T10:57:24;15.65;;;10.75;;
10244;SDS011;5167;52.164;10.530;2023-06-22T10:59:50;14.70;;;10.60;;
10244;SDS011;5167;52.164;10.530;2023-06-22T11:02:16;13.40;;;9.38;;
10244;SDS011;5167;52.164;10.530;2023-06-22T11:04:41;9.73;;;8.23;;
10244;SDS011;5167;52.164;10.530;2023-06-22T11:07:07;12.48;;;8.57;;
10244;SDS011;5167;52.164;10.530;2023-06-22T11:09:32;10.35;;;7.95;;
10244;SDS011;5167;52.164;10.530;2023-06-22T11:11:58;10.90;;;8.27;;
10244;SDS011;5167;52.164;10.530;2023-06-22T11:14:24;11.02;;;8.80;;
10244;SDS011;5167;52.164;10.530;2023-06-22T11:16:50;8.05;;;7.22;;
10244;SDS011;5167;52.164;10.530;2023-06-22T11:19:15;9.23;;;6.60;;
10244;SDS011;5167;52.164;10.530;2023-06-22T11:21:41;9.13;;;7.72;;
10244;SDS011;5167;52.164;10.530;2023-06-22T11:24:07;12.18;;;8.68;;
10244;SDS011;5167;52.164;10.530;2023-06-22T11:26:32;9.82;;;8.02;;
10244;SDS011;5167;52.164;10.530;2023-06-22T11:28:58;9.13;;;7.88;;
10244;SDS011;5167;52.164;10.530;2023-06-22T11:31:24;13.52;;;8.00;;
10244;SDS011;5167;52.164;10.530;2023-06-22T11:33:50;12.90;;;8.18;;
10244;SDS011;5167;52.164;10.530;2023-06-22T11:36:15;12.50;;;9.05;;
10244;SDS011;5167;52.164;10.530;2023-06-22T11:38:41;13.73;;;8.77;;
10244;SDS011;5167;52.164;10.530;2023-06-22T11:41:08;10.25;;;8.23;;
10244;SDS011;5167;52.164;10.530;2023-06-22T11:43:34;9.52;;;7.50;;
10244;SDS011;5167;52.164;10.530;2023-06-22T11:46:01;12.75;;;7.70;;
10244;SDS011;5167;52.164;10.530;2023-06-22T11:48:28;10.85;;;8.98;;
10244;SDS011;5167;52.164;10.530;2023-06-22T11:50:53;12.10;;;9.07;;
10244;SDS011;5167;52.164;10.530;2023-06-22T11:53:20;11.25;;;8.32;;
10244;SDS011;5167;52.164;10.530;2023-06-22T11:55:46;12.63;;;8.52;;
10244;SDS011;5167;52.164;10.530;2023-06-22T11:58:12;13.68;;;8.57;;
10244;SDS011;5167;52.164;10.530;2023-06-22T12:00:38;10.80;;;9.18;;
10244;SDS011;5167;52.164;10.530;2023-06-22T12:03:03;10.77;;;8.05;;
10244;SDS011;5167;52.164;10.530;2023-06-22T12:05:29;17.13;;;9.48;;
10244;SDS011;5167;52.164;10.530;2023-06-22T12:07:55;11.07;;;7.85;;
10244;SDS011;5167;52.164;10.530;2023-06-22T12:10:21;10.77;;;8.68;;
10244;SDS011;5167;52.164;10.530;2023-06-22T12:12:48;14.80;;;8.93;;
10244;SDS011;5167;52.164;10.530;2023-06-22T12:15:13;13.52;;;8.77;;
10244;SDS011;5167;52.164;10.530;2023-06-22T12:17:39;9.88;;;8.82;;
10244;SDS011;5167;52.164;10.530;2023-06-22T12:20:05;10.27;;;8.40;;
10244;SDS011;5167;52.164;10.530;2023-06-22T12:22:32;11.32;;;8.07;;
10244;SDS011;5167;52.164;10.530;2023-06-22T12:24:58;9.65;;;8.10;;
10244;SDS011;5167;52.164;10.530;2023-06-22T12:27:24;10.90;;;8.40;;
10244;SDS011;5167;52.164;10.530;2023-06-22T12:29:50;13.82;;;8.88;;
10244;SDS011;5167;52.164;10.530;2023-06-22T12:32:15;14.45;;;8.55;;
10244;SDS011;5167;52.164;10.530;2023-06-22T12:34:44;11.20;;;8.48;;
10244;SDS011;5167;52.164;10.530;2023-06-22T12:37:10;12.10;;;8.07;;
10244;SDS011;5167;52.164;10.530;2023-06-22T12:39:35;10.02;;;7.88;;
10244;SDS011;5167;52.164;10.530;2023-06-22T12:42:01;10.68;;;8.40;;
10244;SDS011;5167;52.164;10.530;2023-06-22T12:44:26;9.75;;;8.00;;
10244;SDS011;5167;52.164;10.530;2023-06-22T12:46:52;12.77;;;8.30;;
10244;SDS011;5167;52.164;10.530;2023-06-22T12:49:17;12.35;;;7.97;;
10244;SDS011;5167;52.164;10.530;2023-06-22T12:51:43;10.38;;;8.00;;
10244;SDS011;5167;52.164;10.530;2023-06-22T12:54:10;9.80;;;8.07;;
10244;SDS011;5167;52.164;10.530;2023-06-22T12:56:36;11.93;;;7.97;;
10244;SDS011;5167;52.164;10.530;2023-06-22T12:59:03;9.10;;;7.47;;
10244;SDS011;5167;52.164;10.530;2023-06-22T13:01:31;10.00;;;8.43;;
10244;SDS011;5167;52.164;10.530;2023-06-22T13:03:57;9.63;;;8.63;;
10244;SDS011;5167;52.164;10.530;2023-06-22T13:06:23;10.05;;;8.77;;
10244;SDS011;5167;52.164;10.530;2023-06-22T13:08:48;13.98;;;8.68;;
10244;SDS011;5167;52.164;10.530;2023-06-22T13:11:15;11.00;;;8.57;;
10244;SDS011;5167;52.164;10.530;2023-06-22T13:13:41;13.00;;;8.55;;
10244;SDS011;5167;52.164;10.530;2023-06-22T13:16:06;11.18;;;8.73;;
10244;SDS011;5167;52.164;10.530;2023-06-22T13:18:32;12.55;;;8.90;;
10244;SDS011;5167;52.164;10.530;2023-06-22T13:20:59;9.55;;;8.32;;
10244;SDS011;5167;52.164;10.530;2023-06-22T13:23:25;13.90;;;8.15;;
10244;SDS011;5167;52.164;10.530;2023-06-22T13:25:50;10.60;;;7.72;;
10244;SDS011;5167;52.164;10.530;2023-06-22T13:28:16;9.70;;;7.90;;
10244;SDS011;5167;52.164;10.530;2023-06-22T13:30:42;10.20;;;7.25;;
10244;SDS011;5167;52.164;10.530;2023-06-22T13:33:08;10.43;;;7.55;;
10244;SDS011;5167;52.164;10.530;2023-06-22T13:35:34;10.73;;;8.05;;
10244;SDS011;5167;52.164;10.530;2023-06-22T13:38:02;11.63;;;9.13;;
10244;SDS011;5167;52.164;10.530;2023-06-22T13:40:28;10.98;;;7.63;;
10244;SDS011;5167;52.164;10.530;2023-06-22T13:42:54;9.65;;;7.70;;
10244;SDS011;5167;52.164;10.530;2023-06-22T13:45:20;9.52;;;8.35;;
10244;SDS011;5167;52.164;10.530;2023-06-22T13:47:45;11.90;;;8.00;;
10244;SDS011;5167;52.164;10.530;2023-06-22T13:50:11;10.23;;;8.10;;
10244;SDS011;5167;52.164;10.530;2023-06-22T13:52:46;12.20;;;8.55;;
10244;SDS011;5167;52.164;10.530;2023-06-22T13:55:11;10.52;;;7.88;;
10244;SDS011;5167;52.164;10.530;2023-06-22T13:57:39;12.77;;;9.00;;
10244;SDS011;5167;52.164;10.530;2023-06-22T14:00:04;11.10;;;8.55;;
10244;SDS011;5167;52.164;10.530;2023-06-22T14:02:30;8.82;;;8.02;;
10244;SDS011;5167;52.164;10.530;2023-06-22T14:04:56;9.60;;;8.60;;
10244;SDS011;5167;52.164;10.530;2023-06-22T14:07:21;12.57;;;8.60;;
10244;SDS011;5167;52.164;10.530;2023-06-22T14:09:49;10.10;;;8.45;;
10244;SDS011;5167;52.164;10.530;2023-06-22T14:12:14;11.15;;;8.23;;
10244;SDS011;5167;52.164;10.530;2023-06-22T14:14:40;11.80;;;8.40;;
10244;SDS011;5167;52.164;10.530;2023-06-22T14:17:06;8.45;;;7.53;;
10244;SDS011;5167;52.164;10.530;2023-06-22T14:19:32;9.98;;;8.25;;
10244;SDS011;5167;52.164;10.530;2023-06-22T14:21:57;10.18;;;8.38;;
10244;SDS011;5167;52.164;10.530;2023-06-22T14:24:23;10.48;;;8.85;;
10244;SDS011;5167;52.164;10.530;2023-06-22T14:26:49;13.73;;;9.10;;
10244;SDS011;5167;52.164;10.530;2023-06-22T14:29:14;10.70;;;8.30;;
10244;SDS011;5167;52.164;10.530;2023-06-22T14:31:40;8.85;;;7.95;;